sensor_id;sensor_type;location;lat;lon;timestamp;P1;durP1;ratioP1;P2;durP2;ratioP2
75997;SDS011;64685;48.762;44.822;2023-04-03T00:02:20;33.13;;;11.13;;
75997;SDS011;64685;48.762;44.822;2023-04-03T00:07:22;27.88;;;9.90;;
75997;SDS011;64685;48.762;44.822;2023-04-03T00:12:25;19.60;;;7.78;;
75997;SDS011;64685;48.762;44.822;2023-04-03T00:17:27;19.27;;;7.50;;
75997;SDS011;64685;48.762;44.822;2023-04-03T00:22:29;16.23;;;6.70;;
75997;SDS011;64685;48.762;44.822;2023-04-03T00:27:32;22.77;;;8.15;;
75997;SDS011;64685;48.762;44.822;2023-04-03T00:32:34;26.13;;;9.68;;
75997;SDS011;64685;48.762;44.822;2023-04-03T00:37:37;27.73;;;8.50;;
75997;SDS011;64685;48.762;44.822;2023-04-03T00:42:40;21.48;;;7.90;;
75997;SDS011;64685;48.762;44.822;2023-04-03T00:47:43;20.00;;;7.25;;
75997;SDS011;64685;48.762;44.822;2023-04-03T00:52:47;22.58;;;8.52;;
75997;SDS011;64685;48.762;44.822;2023-04-03T00:57:51;24.92;;;8.02;;
75997;SDS011;64685;48.762;44.822;2023-04-03T01:02:54;19.52;;;7.00;;
75997;SDS011;64685;48.762;44.822;2023-04-03T01:07:57;17.00;;;4.97;;
75997;SDS011;64685;48.762;44.822;2023-04-03T01:13:00;13.98;;;4.07;;
75997;SDS011;64685;48.762;44.822;2023-04-03T01:18:03;12.38;;;3.90;;
75997;SDS011;64685;48.762;44.822;2023-04-03T01:28:13;15.27;;;4.90;;
75997;SDS011;64685;48.762;44.822;2023-04-03T01:33:18;9.82;;;3.78;;
75997;SDS011;64685;48.762;44.822;2023-04-03T01:38:22;18.13;;;3.70;;
75997;SDS011;64685;48.762;44.822;2023-04-03T01:43:24;11.05;;;4.10;;
75997;SDS011;64685;48.762;44.822;2023-04-03T01:48:27;17.75;;;4.00;;
75997;SDS011;64685;48.762;44.822;2023-04-03T01:53:29;10.52;;;3.75;;
75997;SDS011;64685;48.762;44.822;2023-04-03T01:58:32;15.57;;;3.83;;
75997;SDS011;64685;48.762;44.822;2023-04-03T02:03:35;15.23;;;4.18;;
75997;SDS011;64685;48.762;44.822;2023-04-03T02:08:38;15.35;;;4.10;;
75997;SDS011;64685;48.762;44.822;2023-04-03T02:13:40;14.05;;;5.18;;
75997;SDS011;64685;48.762;44.822;2023-04-03T02:18:43;18.85;;;4.68;;
75997;SDS011;64685;48.762;44.822;2023-04-03T02:23:45;19.92;;;6.85;;
75997;SDS011;64685;48.762;44.822;2023-04-03T02:28:48;16.70;;;5.05;;
75997;SDS011;64685;48.762;44.822;2023-04-03T02:33:50;17.15;;;6.38;;
75997;SDS011;64685;48.762;44.822;2023-04-03T02:38:53;17.58;;;6.53;;
75997;SDS011;64685;48.762;44.822;2023-04-03T02:43:55;21.38;;;6.10;;
75997;SDS011;64685;48.762;44.822;2023-04-03T02:48:58;11.20;;;4.57;;
75997;SDS011;64685;48.762;44.822;2023-04-03T02:54:00;14.13;;;5.55;;
75997;SDS011;64685;48.762;44.822;2023-04-03T02:59:06;15.40;;;4.50;;
75997;SDS011;64685;48.762;44.822;2023-04-03T03:04:11;17.27;;;4.40;;
75997;SDS011;64685;48.762;44.822;2023-04-03T03:09:13;13.32;;;3.85;;
75997;SDS011;64685;48.762;44.822;2023-04-03T03:14:16;16.08;;;3.42;;
75997;SDS011;64685;48.762;44.822;2023-04-03T03:19:19;11.15;;;3.22;;
75997;SDS011;64685;48.762;44.822;2023-04-03T03:24:22;8.65;;;2.22;;
75997;SDS011;64685;48.762;44.822;2023-04-03T03:29:24;16.58;;;3.20;;
75997;SDS011;64685;48.762;44.822;2023-04-03T03:34:27;14.43;;;3.05;;
75997;SDS011;64685;48.762;44.822;2023-04-03T03:39:30;14.40;;;2.53;;
75997;SDS011;64685;48.762;44.822;2023-04-03T03:44:32;9.80;;;3.05;;
75997;SDS011;64685;48.762;44.822;2023-04-03T03:49:34;8.25;;;2.10;;
75997;SDS011;64685;48.762;44.822;2023-04-03T03:54:37;9.75;;;2.38;;
75997;SDS011;64685;48.762;44.822;2023-04-03T03:59:40;13.77;;;2.50;;
75997;SDS011;64685;48.762;44.822;2023-04-03T04:04:44;22.30;;;4.15;;
75997;SDS011;64685;48.762;44.822;2023-04-03T04:09:46;20.05;;;3.08;;
75997;SDS011;64685;48.762;44.822;2023-04-03T04:14:49;11.88;;;3.20;;
75997;SDS011;64685;48.762;44.822;2023-04-03T04:19:52;18.20;;;3.08;;
75997;SDS011;64685;48.762;44.822;2023-04-03T04:24:55;9.75;;;2.55;;
75997;SDS011;64685;48.762;44.822;2023-04-03T04:29:57;12.30;;;3.45;;
75997;SDS011;64685;48.762;44.822;2023-04-03T04:35:03;15.70;;;2.88;;
75997;SDS011;64685;48.762;44.822;2023-04-03T04:40:09;20.10;;;2.88;;
75997;SDS011;64685;48.762;44.822;2023-04-03T04:45:12;19.00;;;4.78;;
75997;SDS011;64685;48.762;44.822;2023-04-03T04:50:18;22.08;;;3.35;;
75997;SDS011;64685;48.762;44.822;2023-04-03T04:55:23;18.02;;;3.17;;
75997;SDS011;64685;48.762;44.822;2023-04-03T05:00:25;13.35;;;2.70;;
75997;SDS011;64685;48.762;44.822;2023-04-03T05:05:28;19.58;;;3.35;;
75997;SDS011;64685;48.762;44.822;2023-04-03T05:10:31;15.45;;;2.63;;
75997;SDS011;64685;48.762;44.822;2023-04-03T05:15:34;20.10;;;3.13;;
75997;SDS011;64685;48.762;44.822;2023-04-03T05:20:38;22.08;;;3.88;;
75997;SDS011;64685;48.762;44.822;2023-04-03T05:25:40;23.08;;;4.03;;
75997;SDS011;64685;48.762;44.822;2023-04-03T05:30:43;22.48;;;3.50;;
75997;SDS011;64685;48.762;44.822;2023-04-03T05:35:46;24.48;;;4.13;;
75997;SDS011;64685;48.762;44.822;2023-04-03T05:40:53;23.67;;;3.90;;
75997;SDS011;64685;48.762;44.822;2023-04-03T05:45:55;35.05;;;4.45;;
75997;SDS011;64685;48.762;44.822;2023-04-03T05:51:00;22.35;;;4.45;;
75997;SDS011;64685;48.762;44.822;2023-04-03T05:56:03;24.55;;;3.80;;
75997;SDS011;64685;48.762;44.822;2023-04-03T06:01:11;28.65;;;4.30;;
75997;SDS011;64685;48.762;44.822;2023-04-03T06:06:14;23.55;;;4.63;;
75997;SDS011;64685;48.762;44.822;2023-04-03T06:11:17;31.67;;;4.85;;
75997;SDS011;64685;48.762;44.822;2023-04-03T06:16:19;36.50;;;5.07;;
75997;SDS011;64685;48.762;44.822;2023-04-03T06:21:22;30.83;;;4.75;;
75997;SDS011;64685;48.762;44.822;2023-04-03T06:26:24;32.33;;;4.35;;
75997;SDS011;64685;48.762;44.822;2023-04-03T06:31:27;31.30;;;5.82;;
75997;SDS011;64685;48.762;44.822;2023-04-03T06:36:29;36.28;;;5.18;;
75997;SDS011;64685;48.762;44.822;2023-04-03T06:41:32;33.35;;;4.45;;
75997;SDS011;64685;48.762;44.822;2023-04-03T06:46:38;41.42;;;5.97;;
75997;SDS011;64685;48.762;44.822;2023-04-03T06:51:40;36.00;;;5.32;;
75997;SDS011;64685;48.762;44.822;2023-04-03T06:56:43;38.05;;;5.28;;
75997;SDS011;64685;48.762;44.822;2023-04-03T07:01:45;36.95;;;5.60;;
75997;SDS011;64685;48.762;44.822;2023-04-03T07:06:48;34.83;;;5.68;;
75997;SDS011;64685;48.762;44.822;2023-04-03T07:11:50;34.85;;;6.35;;
75997;SDS011;64685;48.762;44.822;2023-04-03T07:16:53;48.55;;;5.75;;
75997;SDS011;64685;48.762;44.822;2023-04-03T07:21:55;37.10;;;5.43;;
75997;SDS011;64685;48.762;44.822;2023-04-03T07:26:58;39.47;;;6.18;;
75997;SDS011;64685;48.762;44.822;2023-04-03T07:32:01;37.90;;;5.95;;
75997;SDS011;64685;48.762;44.822;2023-04-03T07:37:04;41.13;;;6.05;;
75997;SDS011;64685;48.762;44.822;2023-04-03T07:42:08;49.30;;;6.55;;
75997;SDS011;64685;48.762;44.822;2023-04-03T07:47:10;43.33;;;5.88;;
75997;SDS011;64685;48.762;44.822;2023-04-03T07:52:13;45.33;;;6.32;;
75997;SDS011;64685;48.762;44.822;2023-04-03T07:57:17;39.80;;;5.55;;
75997;SDS011;64685;48.762;44.822;2023-04-03T08:02:19;30.38;;;5.07;;
75997;SDS011;64685;48.762;44.822;2023-04-03T08:07:22;30.90;;;5.13;;
75997;SDS011;64685;48.762;44.822;2023-04-03T08:12:24;40.85;;;5.28;;
75997;SDS011;64685;48.762;44.822;2023-04-03T08:17:27;45.85;;;6.53;;
75997;SDS011;64685;48.762;44.822;2023-04-03T08:22:29;41.15;;;5.68;;
75997;SDS011;64685;48.762;44.822;2023-04-03T08:27:32;32.53;;;5.05;;
75997;SDS011;64685;48.762;44.822;2023-04-03T08:32:35;37.50;;;5.13;;
75997;SDS011;64685;48.762;44.822;2023-04-03T08:37:38;41.97;;;6.40;;
75997;SDS011;64685;48.762;44.822;2023-04-03T08:48:00;40.10;;;5.93;;
75997;SDS011;64685;48.762;44.822;2023-04-03T08:53:13;39.78;;;5.90;;
75997;SDS011;64685;48.762;44.822;2023-04-03T08:58:19;28.38;;;5.13;;
75997;SDS011;64685;48.762;44.822;2023-04-03T09:03:23;33.13;;;5.20;;
75997;SDS011;64685;48.762;44.822;2023-04-03T09:08:30;29.23;;;3.72;;
75997;SDS011;64685;48.762;44.822;2023-04-03T09:24:17;22.85;;;4.18;;
75997;SDS011;64685;48.762;44.822;2023-04-03T09:29:24;20.30;;;3.75;;
75997;SDS011;64685;48.762;44.822;2023-04-03T09:34:28;19.25;;;3.75;;
75997;SDS011;64685;48.762;44.822;2023-04-03T09:39:48;27.73;;;4.30;;
75997;SDS011;64685;48.762;44.822;2023-04-03T09:44:59;27.75;;;4.65;;
75997;SDS011;64685;48.762;44.822;2023-04-03T09:55:19;21.55;;;4.28;;
75997;SDS011;64685;48.762;44.822;2023-04-03T10:00:52;34.80;;;5.15;;
75997;SDS011;64685;48.762;44.822;2023-04-03T10:05:58;30.88;;;4.85;;
75997;SDS011;64685;48.762;44.822;2023-04-03T10:16:21;30.55;;;4.60;;
75997;SDS011;64685;48.762;44.822;2023-04-03T10:21:39;30.63;;;4.75;;
75997;SDS011;64685;48.762;44.822;2023-04-03T10:37:35;28.95;;;4.55;;
75997;SDS011;64685;48.762;44.822;2023-04-03T10:43:02;29.77;;;3.85;;
75997;SDS011;64685;48.762;44.822;2023-04-03T10:48:22;33.30;;;4.18;;
75997;SDS011;64685;48.762;44.822;2023-04-03T10:53:37;33.85;;;5.43;;
75997;SDS011;64685;48.762;44.822;2023-04-03T10:58:57;31.65;;;5.10;;
75997;SDS011;64685;48.762;44.822;2023-04-03T11:04:09;35.35;;;3.92;;
75997;SDS011;64685;48.762;44.822;2023-04-03T11:09:24;36.65;;;4.80;;
75997;SDS011;64685;48.762;44.822;2023-04-03T11:14:38;31.65;;;4.53;;
75997;SDS011;64685;48.762;44.822;2023-04-03T11:19:45;26.13;;;4.32;;
75997;SDS011;64685;48.762;44.822;2023-04-03T11:30:15;33.53;;;4.68;;
75997;SDS011;64685;48.762;44.822;2023-04-03T11:35:45;28.20;;;3.72;;
75997;SDS011;64685;48.762;44.822;2023-04-03T11:40:54;23.92;;;4.15;;
75997;SDS011;64685;48.762;44.822;2023-04-03T11:46:02;27.40;;;4.05;;
75997;SDS011;64685;48.762;44.822;2023-04-03T12:01:46;20.70;;;3.00;;
75997;SDS011;64685;48.762;44.822;2023-04-03T12:06:59;23.38;;;3.42;;
75997;SDS011;64685;48.762;44.822;2023-04-03T12:17:37;27.20;;;3.20;;
75997;SDS011;64685;48.762;44.822;2023-04-03T12:22:40;28.08;;;2.53;;
75997;SDS011;64685;48.762;44.822;2023-04-03T12:28:21;32.05;;;3.42;;
75997;SDS011;64685;48.762;44.822;2023-04-03T12:33:33;25.75;;;4.00;;
75997;SDS011;64685;48.762;44.822;2023-04-03T12:39:24;27.92;;;3.22;;
75997;SDS011;64685;48.762;44.822;2023-04-03T12:49:38;22.98;;;3.10;;
75997;SDS011;64685;48.762;44.822;2023-04-03T12:54:43;25.73;;;3.38;;
75997;SDS011;64685;48.762;44.822;2023-04-03T12:59:48;26.75;;;5.13;;
75997;SDS011;64685;48.762;44.822;2023-04-03T13:04:51;29.48;;;4.25;;
75997;SDS011;64685;48.762;44.822;2023-04-03T13:09:57;25.92;;;3.58;;
75997;SDS011;64685;48.762;44.822;2023-04-03T13:15:21;23.83;;;3.25;;
75997;SDS011;64685;48.762;44.822;2023-04-03T13:20:41;23.15;;;3.53;;
75997;SDS011;64685;48.762;44.822;2023-04-03T13:25:44;26.40;;;3.38;;
75997;SDS011;64685;48.762;44.822;2023-04-03T13:36:19;24.40;;;3.08;;
75997;SDS011;64685;48.762;44.822;2023-04-03T13:41:25;28.67;;;3.50;;
75997;SDS011;64685;48.762;44.822;2023-04-03T13:46:31;25.45;;;3.50;;
75997;SDS011;64685;48.762;44.822;2023-04-03T13:51:34;27.33;;;4.30;;
75997;SDS011;64685;48.762;44.822;2023-04-03T13:56:40;22.42;;;3.90;;
75997;SDS011;64685;48.762;44.822;2023-04-03T14:01:45;31.65;;;5.80;;
75997;SDS011;64685;48.762;44.822;2023-04-03T14:06:48;29.10;;;4.20;;
75997;SDS011;64685;48.762;44.822;2023-04-03T14:11:55;32.15;;;4.68;;
75997;SDS011;64685;48.762;44.822;2023-04-03T14:17:03;21.45;;;3.50;;
75997;SDS011;64685;48.762;44.822;2023-04-03T14:22:27;30.48;;;4.10;;
75997;SDS011;64685;48.762;44.822;2023-04-03T14:27:35;25.65;;;4.07;;
75997;SDS011;64685;48.762;44.822;2023-04-03T14:32:39;30.48;;;5.18;;
75997;SDS011;64685;48.762;44.822;2023-04-03T14:37:42;27.83;;;3.65;;
75997;SDS011;64685;48.762;44.822;2023-04-03T14:42:45;29.52;;;4.07;;
75997;SDS011;64685;48.762;44.822;2023-04-03T14:47:51;28.27;;;3.22;;
75997;SDS011;64685;48.762;44.822;2023-04-03T14:52:56;32.90;;;3.97;;
75997;SDS011;64685;48.762;44.822;2023-04-03T14:58:00;27.85;;;3.60;;
75997;SDS011;64685;48.762;44.822;2023-04-03T15:03:03;27.27;;;3.28;;
75997;SDS011;64685;48.762;44.822;2023-04-03T15:08:08;24.83;;;4.03;;
75997;SDS011;64685;48.762;44.822;2023-04-03T15:13:19;29.83;;;4.25;;
75997;SDS011;64685;48.762;44.822;2023-04-03T15:18:23;22.63;;;3.85;;
75997;SDS011;64685;48.762;44.822;2023-04-03T15:23:31;27.13;;;4.10;;
75997;SDS011;64685;48.762;44.822;2023-04-03T15:28:38;29.55;;;3.90;;
75997;SDS011;64685;48.762;44.822;2023-04-03T15:33:42;37.70;;;4.35;;
75997;SDS011;64685;48.762;44.822;2023-04-03T15:38:45;26.23;;;4.15;;
75997;SDS011;64685;48.762;44.822;2023-04-03T15:43:47;34.00;;;5.55;;
75997;SDS011;64685;48.762;44.822;2023-04-03T15:48:50;39.45;;;6.05;;
75997;SDS011;64685;48.762;44.822;2023-04-03T15:53:52;42.55;;;7.75;;
75997;SDS011;64685;48.762;44.822;2023-04-03T15:58:55;44.22;;;9.30;;
75997;SDS011;64685;48.762;44.822;2023-04-03T16:03:57;35.33;;;8.13;;
75997;SDS011;64685;48.762;44.822;2023-04-03T16:09:00;32.55;;;5.85;;
75997;SDS011;64685;48.762;44.822;2023-04-03T16:14:02;26.38;;;4.75;;
75997;SDS011;64685;48.762;44.822;2023-04-03T16:19:05;30.17;;;6.50;;
75997;SDS011;64685;48.762;44.822;2023-04-03T16:24:08;28.05;;;5.60;;
75997;SDS011;64685;48.762;44.822;2023-04-03T16:29:10;28.17;;;5.22;;
75997;SDS011;64685;48.762;44.822;2023-04-03T16:34:13;29.48;;;5.20;;
75997;SDS011;64685;48.762;44.822;2023-04-03T16:39:15;26.55;;;4.75;;
75997;SDS011;64685;48.762;44.822;2023-04-03T16:44:18;29.98;;;4.55;;
75997;SDS011;64685;48.762;44.822;2023-04-03T16:49:20;31.63;;;6.20;;
75997;SDS011;64685;48.762;44.822;2023-04-03T16:54:23;33.53;;;7.57;;
75997;SDS011;64685;48.762;44.822;2023-04-03T16:59:25;36.78;;;10.00;;
75997;SDS011;64685;48.762;44.822;2023-04-03T17:04:28;37.03;;;7.22;;
75997;SDS011;64685;48.762;44.822;2023-04-03T17:09:31;34.90;;;5.63;;
75997;SDS011;64685;48.762;44.822;2023-04-03T17:14:34;28.33;;;4.35;;
75997;SDS011;64685;48.762;44.822;2023-04-03T17:19:36;25.98;;;4.22;;
75997;SDS011;64685;48.762;44.822;2023-04-03T17:24:40;19.95;;;4.63;;
75997;SDS011;64685;48.762;44.822;2023-04-03T17:29:42;17.52;;;3.90;;
75997;SDS011;64685;48.762;44.822;2023-04-03T17:34:45;18.48;;;5.13;;
75997;SDS011;64685;48.762;44.822;2023-04-03T17:39:48;19.90;;;5.72;;
75997;SDS011;64685;48.762;44.822;2023-04-03T17:44:51;19.77;;;4.10;;
75997;SDS011;64685;48.762;44.822;2023-04-03T17:49:53;25.88;;;4.88;;
75997;SDS011;64685;48.762;44.822;2023-04-03T17:54:56;21.52;;;3.88;;
75997;SDS011;64685;48.762;44.822;2023-04-03T17:59:58;24.15;;;5.50;;
75997;SDS011;64685;48.762;44.822;2023-04-03T18:05:01;19.48;;;4.25;;
75997;SDS011;64685;48.762;44.822;2023-04-03T18:10:04;17.15;;;4.32;;
75997;SDS011;64685;48.762;44.822;2023-04-03T18:15:09;22.90;;;4.50;;
75997;SDS011;64685;48.762;44.822;2023-04-03T18:20:12;22.13;;;4.45;;
75997;SDS011;64685;48.762;44.822;2023-04-03T18:25:17;19.08;;;4.40;;
75997;SDS011;64685;48.762;44.822;2023-04-03T18:30:20;20.58;;;5.40;;
75997;SDS011;64685;48.762;44.822;2023-04-03T18:35:24;22.25;;;5.78;;
75997;SDS011;64685;48.762;44.822;2023-04-03T18:40:26;16.90;;;4.75;;
75997;SDS011;64685;48.762;44.822;2023-04-03T18:45:29;21.80;;;6.50;;
75997;SDS011;64685;48.762;44.822;2023-04-03T18:50:31;15.82;;;4.45;;
75997;SDS011;64685;48.762;44.822;2023-04-03T18:55:35;17.95;;;4.97;;
75997;SDS011;64685;48.762;44.822;2023-04-03T19:00:38;19.05;;;4.97;;
75997;SDS011;64685;48.762;44.822;2023-04-03T19:05:41;23.25;;;5.13;;
75997;SDS011;64685;48.762;44.822;2023-04-03T19:10:44;21.42;;;5.28;;
75997;SDS011;64685;48.762;44.822;2023-04-03T19:15:47;17.63;;;4.68;;
75997;SDS011;64685;48.762;44.822;2023-04-03T19:20:49;16.55;;;5.53;;
75997;SDS011;64685;48.762;44.822;2023-04-03T19:31:01;19.42;;;5.75;;
75997;SDS011;64685;48.762;44.822;2023-04-03T19:36:04;17.52;;;5.13;;
75997;SDS011;64685;48.762;44.822;2023-04-03T19:41:08;14.63;;;4.57;;
75997;SDS011;64685;48.762;44.822;2023-04-03T19:46:13;18.48;;;5.28;;
75997;SDS011;64685;48.762;44.822;2023-04-03T19:51:16;14.30;;;4.40;;
75997;SDS011;64685;48.762;44.822;2023-04-03T19:56:19;12.18;;;4.40;;
75997;SDS011;64685;48.762;44.822;2023-04-03T20:01:22;13.73;;;4.30;;
75997;SDS011;64685;48.762;44.822;2023-04-03T20:06:25;15.63;;;4.25;;
75997;SDS011;64685;48.762;44.822;2023-04-03T20:11:27;11.20;;;3.55;;
75997;SDS011;64685;48.762;44.822;2023-04-03T20:16:30;9.27;;;3.15;;
75997;SDS011;64685;48.762;44.822;2023-04-03T20:21:32;11.32;;;4.60;;
75997;SDS011;64685;48.762;44.822;2023-04-03T20:26:35;13.05;;;4.50;;
75997;SDS011;64685;48.762;44.822;2023-04-03T20:31:46;12.73;;;4.55;;
75997;SDS011;64685;48.762;44.822;2023-04-03T20:36:49;9.73;;;3.67;;
75997;SDS011;64685;48.762;44.822;2023-04-03T20:41:52;6.28;;;2.15;;
75997;SDS011;64685;48.762;44.822;2023-04-03T20:46:55;8.80;;;3.72;;
75997;SDS011;64685;48.762;44.822;2023-04-03T20:51:59;9.80;;;3.65;;
75997;SDS011;64685;48.762;44.822;2023-04-03T20:57:01;11.88;;;3.00;;
75997;SDS011;64685;48.762;44.822;2023-04-03T21:02:04;10.00;;;2.50;;
75997;SDS011;64685;48.762;44.822;2023-04-03T21:23:37;10.43;;;3.40;;
75997;SDS011;64685;48.762;44.822;2023-04-03T21:28:39;11.02;;;3.50;;
75997;SDS011;64685;48.762;44.822;2023-04-03T21:33:43;12.55;;;3.65;;
75997;SDS011;64685;48.762;44.822;2023-04-03T21:38:46;11.40;;;3.83;;
75997;SDS011;64685;48.762;44.822;2023-04-03T21:43:48;13.63;;;4.55;;
75997;SDS011;64685;48.762;44.822;2023-04-03T21:48:50;10.13;;;3.63;;
75997;SDS011;64685;48.762;44.822;2023-04-03T21:53:53;10.32;;;3.30;;
75997;SDS011;64685;48.762;44.822;2023-04-03T21:58:56;10.63;;;3.58;;
75997;SDS011;64685;48.762;44.822;2023-04-03T22:04:01;11.10;;;3.60;;
75997;SDS011;64685;48.762;44.822;2023-04-03T22:09:04;14.48;;;4.38;;
75997;SDS011;64685;48.762;44.822;2023-04-03T22:14:06;10.98;;;3.65;;
75997;SDS011;64685;48.762;44.822;2023-04-03T22:19:09;10.23;;;3.67;;
75997;SDS011;64685;48.762;44.822;2023-04-03T22:24:11;11.68;;;4.30;;
75997;SDS011;64685;48.762;44.822;2023-04-03T22:29:14;12.98;;;4.47;;
75997;SDS011;64685;48.762;44.822;2023-04-03T22:34:17;12.13;;;5.28;;
75997;SDS011;64685;48.762;44.822;2023-04-03T22:39:20;11.73;;;4.55;;
75997;SDS011;64685;48.762;44.822;2023-04-03T22:44:23;13.32;;;4.55;;
75997;SDS011;64685;48.762;44.822;2023-04-03T22:49:30;9.60;;;4.15;;
75997;SDS011;64685;48.762;44.822;2023-04-03T22:54:32;10.43;;;4.43;;
75997;SDS011;64685;48.762;44.822;2023-04-03T22:59:35;9.32;;;4.45;;
75997;SDS011;64685;48.762;44.822;2023-04-03T23:04:37;11.93;;;4.45;;
75997;SDS011;64685;48.762;44.822;2023-04-03T23:09:40;16.20;;;4.72;;
75997;SDS011;64685;48.762;44.822;2023-04-03T23:14:42;9.82;;;5.25;;
75997;SDS011;64685;48.762;44.822;2023-04-03T23:19:45;11.88;;;5.40;;
75997;SDS011;64685;48.762;44.822;2023-04-03T23:24:47;9.70;;;4.93;;
75997;SDS011;64685;48.762;44.822;2023-04-03T23:29:50;10.43;;;4.55;;
75997;SDS011;64685;48.762;44.822;2023-04-03T23:34:52;11.55;;;4.80;;
75997;SDS011;64685;48.762;44.822;2023-04-03T23:39:55;11.02;;;5.05;;
75997;SDS011;64685;48.762;44.822;2023-04-03T23:44:57;13.10;;;5.22;;
75997;SDS011;64685;48.762;44.822;2023-04-03T23:49:59;12.32;;;4.18;;
75997;SDS011;64685;48.762;44.822;2023-04-03T23:55:03;10.88;;;5.20;;
